Airfield :
LOGIN :

Register | Disclaimer

   EN    FR    IT 

 










Legend :    VFR   Marginal VFR   IFR   Intensive IFR   Very Intensive IFR
Visi :
Ceiling :
>= 8 km
>= 3000ft
5 to 8 km
1000 to 3000 ft
1500m to 5 km
500 to 1000 ft
800 to 1500m
200 to 500 ft
< 800m
< 200 ft
Symbols :   Thunderstorms  Fog  Heavy snow  Heavy precipitations  Wind > 20 kt
SIGMETs :     Misc.  Thunderstorms  Icing  Turbulence  Mountain Waves  Volcanic Ashes






- Airport Elevation : 1273 ft
- IATA code : LJU


LJLJ - Ljubljana

CURRENT METAR :
  • 021200Z 00000KT 8000 FEW002 SCT005 BKN060 03/01 Q1020 NOSIG

EXPIRED METARs :
  • 021130Z VRB02KT 8000 FEW002 SCT005 BKN060 02/02 Q1020 NOSIG
  • 021100Z 27002KT 6000 FEW002 SCT020 BKN060 02/01 Q1020 NOSIG
  • 021030Z 28003KT 6000 FEW002 SCT020 BKN060 02/01 Q1020 NOSIG
  • 021000Z 31002KT 6000 -RA FEW001 BKN015 OVC027 02/01 Q1020 NOSIG
  • 020930Z 31002KT 4000 -RASN BR FEW003 BKN010 OVC020 01/00 Q1020 NOSIG
  • 020900Z 28002KT 3000 -SN BR FEW003 BKN010 OVC020 01/00 Q1020 NOSIG

TAF TAF LJLJ
Valid from the 02 at 12:00 until the 03 at 12:00 UTC


021100Z 0212/0312 VRB02KT 7000 FEW002 SCT020 BKN060
PROB30
TEMPO 0212/0306 -RA BKN015
TEMPO 0306/0312 3500 -SNRA BR BKN008 OVC015



MET'MAP, your aeronautical weather chart ! - Copyright ORBIFLY December 2007 - Disclaimer

ORBIFLY MET'MAP TEAM :

Programming & Development : Alexandra Zaïnal
Original concept : Baudouin d'Aumeries
Technical & hardware support : Manuel Goepfert
Assistance : Marc-Olivier Méhu




SOURCES & CREDITS :

   NOAA